Rio Lucio, New Mexico
Current Conditions -  °F | °C
As of 11:15 AM on Thursday 29 Jan 2015 (Local Time) from KSKX Reporting Station
Broken Clouds Broken Clouds  
Wind Chill: 39°   Ceiling: 9000
Heat Index: 43°   Visibility: 10mi
Dew Point: 28°   Wind: 7mph
Humidity: 57%   Direction: 270°W
Pressure: 30.45"   Gusts: NA
Location:  36.1709°N, 105.75°W
Report Text: KSKX 291815Z AUTO 27006KT 10SM BKN090 06/M02 A3045 RMK AO1
Loading
Personal Weather Stations






























Interactive Weather Map New forecast layout! Learn more

10-Day Weather Forecast

Advertisements
Track Severe Weather on mobile